sensor_id;sensor_type;location;lat;lon;timestamp;temperature;humidity
72814;DHT22;60945;48.516;-2.768;2022-07-29T00:00:05;19.00;74.00
72814;DHT22;60945;48.516;-2.768;2022-07-29T00:02:31;19.10;73.90
72814;DHT22;60945;48.516;-2.768;2022-07-29T00:04:57;19.10;73.70
72814;DHT22;60945;48.516;-2.768;2022-07-29T00:07:23;19.10;73.90
72814;DHT22;60945;48.516;-2.768;2022-07-29T00:09:49;19.00;74.10
72814;DHT22;60945;48.516;-2.768;2022-07-29T00:12:14;19.00;74.10
72814;DHT22;60945;48.516;-2.768;2022-07-29T00:14:40;19.00;74.20
72814;DHT22;60945;48.516;-2.768;2022-07-29T00:17:05;18.90;74.40
72814;DHT22;60945;48.516;-2.768;2022-07-29T00:19:31;18.80;74.80
72814;DHT22;60945;48.516;-2.768;2022-07-29T00:21:56;18.80;74.80
72814;DHT22;60945;48.516;-2.768;2022-07-29T00:24:22;18.80;74.80
72814;DHT22;60945;48.516;-2.768;2022-07-29T00:26:48;18.80;74.70
72814;DHT22;60945;48.516;-2.768;2022-07-29T00:29:14;18.70;75.00
72814;DHT22;60945;48.516;-2.768;2022-07-29T00:31:39;18.70;75.00
72814;DHT22;60945;48.516;-2.768;2022-07-29T00:34:05;18.60;75.60
72814;DHT22;60945;48.516;-2.768;2022-07-29T00:36:50;18.60;75.80
72814;DHT22;60945;48.516;-2.768;2022-07-29T00:39:16;18.50;76.20
72814;DHT22;60945;48.516;-2.768;2022-07-29T00:41:42;18.60;76.10
72814;DHT22;60945;48.516;-2.768;2022-07-29T00:44:07;18.50;76.10
72814;DHT22;60945;48.516;-2.768;2022-07-29T00:46:33;18.50;75.90
72814;DHT22;60945;48.516;-2.768;2022-07-29T00:48:58;18.50;76.00
72814;DHT22;60945;48.516;-2.768;2022-07-29T00:51:26;18.50;76.20
72814;DHT22;60945;48.516;-2.768;2022-07-29T00:53:53;18.50;76.20
72814;DHT22;60945;48.516;-2.768;2022-07-29T00:56:19;18.50;76.10
72814;DHT22;60945;48.516;-2.768;2022-07-29T00:58:46;18.50;76.20
72814;DHT22;60945;48.516;-2.768;2022-07-29T01:01:13;18.40;76.30
72814;DHT22;60945;48.516;-2.768;2022-07-29T01:03:39;18.40;76.30
72814;DHT22;60945;48.516;-2.768;2022-07-29T01:06:04;18.40;76.30
72814;DHT22;60945;48.516;-2.768;2022-07-29T01:08:31;18.40;76.30
72814;DHT22;60945;48.516;-2.768;2022-07-29T01:10:59;18.20;76.90
72814;DHT22;60945;48.516;-2.768;2022-07-29T01:13:26;18.10;77.40
72814;DHT22;60945;48.516;-2.768;2022-07-29T01:16:09;18.10;77.20
72814;DHT22;60945;48.516;-2.768;2022-07-29T01:18:40;18.10;77.80
72814;DHT22;60945;48.516;-2.768;2022-07-29T01:29:58;18.10;77.00
72814;DHT22;60945;48.516;-2.768;2022-07-29T01:32:29;18.00;77.60
72814;DHT22;60945;48.516;-2.768;2022-07-29T01:39:56;18.00;77.00
72814;DHT22;60945;48.516;-2.768;2022-07-29T01:47:42;18.10;76.40
72814;DHT22;60945;48.516;-2.768;2022-07-29T01:50:11;18.10;76.30
72814;DHT22;60945;48.516;-2.768;2022-07-29T01:52:49;18.20;76.00
72814;DHT22;60945;48.516;-2.768;2022-07-29T01:55:20;18.20;75.90
72814;DHT22;60945;48.516;-2.768;2022-07-29T01:57:48;18.30;75.50
72814;DHT22;60945;48.516;-2.768;2022-07-29T02:00:14;18.30;75.80
72814;DHT22;60945;48.516;-2.768;2022-07-29T02:02:43;18.30;75.80
72814;DHT22;60945;48.516;-2.768;2022-07-29T02:05:12;18.30;75.70
72814;DHT22;60945;48.516;-2.768;2022-07-29T02:07:40;18.30;75.90
72814;DHT22;60945;48.516;-2.768;2022-07-29T02:10:08;18.30;75.80
72814;DHT22;60945;48.516;-2.768;2022-07-29T02:12:35;18.40;75.90
72814;DHT22;60945;48.516;-2.768;2022-07-29T02:15:03;18.40;75.70
72814;DHT22;60945;48.516;-2.768;2022-07-29T02:17:41;18.40;75.50
72814;DHT22;60945;48.516;-2.768;2022-07-29T02:20:08;18.50;75.60
72814;DHT22;60945;48.516;-2.768;2022-07-29T02:22:37;18.40;76.00
72814;DHT22;60945;48.516;-2.768;2022-07-29T02:25:04;18.10;77.40
72814;DHT22;60945;48.516;-2.768;2022-07-29T02:27:30;18.00;77.70
72814;DHT22;60945;48.516;-2.768;2022-07-29T02:30:01;18.00;77.80
72814;DHT22;60945;48.516;-2.768;2022-07-29T02:32:28;18.00;77.40
72814;DHT22;60945;48.516;-2.768;2022-07-29T02:34:56;18.00;77.10
72814;DHT22;60945;48.516;-2.768;2022-07-29T02:37:23;18.00;77.20
72814;DHT22;60945;48.516;-2.768;2022-07-29T02:39:51;17.90;78.10
72814;DHT22;60945;48.516;-2.768;2022-07-29T02:42:19;17.80;78.30
72814;DHT22;60945;48.516;-2.768;2022-07-29T02:44:46;17.70;78.60
72814;DHT22;60945;48.516;-2.768;2022-07-29T02:47:33;17.80;78.20
72814;DHT22;60945;48.516;-2.768;2022-07-29T02:50:07;17.90;78.10
72814;DHT22;60945;48.516;-2.768;2022-07-29T02:53:00;17.90;77.60
72814;DHT22;60945;48.516;-2.768;2022-07-29T02:55:43;18.00;77.70
72814;DHT22;60945;48.516;-2.768;2022-07-29T03:00:49;17.90;77.80
72814;DHT22;60945;48.516;-2.768;2022-07-29T03:03:18;18.00;77.50
72814;DHT22;60945;48.516;-2.768;2022-07-29T03:05:44;18.00;77.20
72814;DHT22;60945;48.516;-2.768;2022-07-29T03:08:11;18.10;76.80
72814;DHT22;60945;48.516;-2.768;2022-07-29T03:10:39;18.10;76.90
72814;DHT22;60945;48.516;-2.768;2022-07-29T03:13:05;18.10;76.90
72814;DHT22;60945;48.516;-2.768;2022-07-29T03:15:33;18.10;76.60
72814;DHT22;60945;48.516;-2.768;2022-07-29T03:17:59;18.10;76.40
72814;DHT22;60945;48.516;-2.768;2022-07-29T03:20:26;18.10;76.30
72814;DHT22;60945;48.516;-2.768;2022-07-29T03:22:51;18.10;76.10
72814;DHT22;60945;48.516;-2.768;2022-07-29T03:25:18;18.10;76.10
72814;DHT22;60945;48.516;-2.768;2022-07-29T03:27:45;18.00;76.40
72814;DHT22;60945;48.516;-2.768;2022-07-29T03:30:12;18.00;76.00
72814;DHT22;60945;48.516;-2.768;2022-07-29T03:32:40;18.10;76.10
72814;DHT22;60945;48.516;-2.768;2022-07-29T03:35:07;18.00;76.10
72814;DHT22;60945;48.516;-2.768;2022-07-29T03:37:32;18.00;75.80
72814;DHT22;60945;48.516;-2.768;2022-07-29T03:40:00;18.10;75.80
72814;DHT22;60945;48.516;-2.768;2022-07-29T03:42:32;18.00;76.20
72814;DHT22;60945;48.516;-2.768;2022-07-29T03:45:01;17.90;76.60
72814;DHT22;60945;48.516;-2.768;2022-07-29T03:47:29;17.90;76.70
72814;DHT22;60945;48.516;-2.768;2022-07-29T03:50:02;17.90;76.70
72814;DHT22;60945;48.516;-2.768;2022-07-29T03:52:28;17.90;76.90
72814;DHT22;60945;48.516;-2.768;2022-07-29T03:54:54;18.00;76.60
72814;DHT22;60945;48.516;-2.768;2022-07-29T03:57:23;18.00;76.50
72814;DHT22;60945;48.516;-2.768;2022-07-29T03:59:51;18.00;76.80
72814;DHT22;60945;48.516;-2.768;2022-07-29T04:02:17;17.90;76.80
72814;DHT22;60945;48.516;-2.768;2022-07-29T04:04:43;17.90;77.20
72814;DHT22;60945;48.516;-2.768;2022-07-29T04:07:12;17.90;77.30
72814;DHT22;60945;48.516;-2.768;2022-07-29T04:09:38;17.90;77.40
72814;DHT22;60945;48.516;-2.768;2022-07-29T04:12:04;17.90;77.40
72814;DHT22;60945;48.516;-2.768;2022-07-29T04:14:31;17.80;77.80
72814;DHT22;60945;48.516;-2.768;2022-07-29T04:16:57;17.80;77.80
72814;DHT22;60945;48.516;-2.768;2022-07-29T04:19:23;17.70;78.30
72814;DHT22;60945;48.516;-2.768;2022-07-29T04:21:48;17.80;78.40
72814;DHT22;60945;48.516;-2.768;2022-07-29T04:24:14;17.80;78.20
72814;DHT22;60945;48.516;-2.768;2022-07-29T04:26:40;17.80;78.30
72814;DHT22;60945;48.516;-2.768;2022-07-29T04:29:06;17.80;78.10
72814;DHT22;60945;48.516;-2.768;2022-07-29T04:31:31;17.80;78.20
72814;DHT22;60945;48.516;-2.768;2022-07-29T04:33:57;17.90;77.90
72814;DHT22;60945;48.516;-2.768;2022-07-29T04:36:22;17.90;77.80
72814;DHT22;60945;48.516;-2.768;2022-07-29T04:38:48;17.90;77.70
72814;DHT22;60945;48.516;-2.768;2022-07-29T04:41:14;18.00;77.40
72814;DHT22;60945;48.516;-2.768;2022-07-29T04:43:39;18.00;77.20
72814;DHT22;60945;48.516;-2.768;2022-07-29T04:46:06;18.10;76.50
72814;DHT22;60945;48.516;-2.768;2022-07-29T04:48:32;18.20;76.40
72814;DHT22;60945;48.516;-2.768;2022-07-29T04:50:58;18.20;76.30
72814;DHT22;60945;48.516;-2.768;2022-07-29T04:53:24;18.20;76.30
72814;DHT22;60945;48.516;-2.768;2022-07-29T04:55:50;18.20;76.10
72814;DHT22;60945;48.516;-2.768;2022-07-29T04:58:16;18.20;76.00
72814;DHT22;60945;48.516;-2.768;2022-07-29T05:00:42;18.20;75.80
72814;DHT22;60945;48.516;-2.768;2022-07-29T05:03:07;18.30;75.70
72814;DHT22;60945;48.516;-2.768;2022-07-29T05:05:33;18.30;75.30
72814;DHT22;60945;48.516;-2.768;2022-07-29T05:07:59;18.30;75.50
72814;DHT22;60945;48.516;-2.768;2022-07-29T05:10:25;18.30;75.60
72814;DHT22;60945;48.516;-2.768;2022-07-29T05:12:50;18.30;75.30
72814;DHT22;60945;48.516;-2.768;2022-07-29T05:15:16;18.30;75.20
72814;DHT22;60945;48.516;-2.768;2022-07-29T05:17:43;18.30;75.50
72814;DHT22;60945;48.516;-2.768;2022-07-29T05:20:20;18.30;74.80
72814;DHT22;60945;48.516;-2.768;2022-07-29T05:22:52;18.40;74.80
72814;DHT22;60945;48.516;-2.768;2022-07-29T05:25:17;18.40;74.50
72814;DHT22;60945;48.516;-2.768;2022-07-29T05:27:43;18.40;74.40
72814;DHT22;60945;48.516;-2.768;2022-07-29T05:30:09;18.40;74.50
72814;DHT22;60945;48.516;-2.768;2022-07-29T05:32:35;18.50;74.40
72814;DHT22;60945;48.516;-2.768;2022-07-29T05:35:00;18.50;74.50
72814;DHT22;60945;48.516;-2.768;2022-07-29T05:37:26;18.50;74.30
72814;DHT22;60945;48.516;-2.768;2022-07-29T05:39:52;18.50;73.80
72814;DHT22;60945;48.516;-2.768;2022-07-29T05:42:17;18.60;73.70
72814;DHT22;60945;48.516;-2.768;2022-07-29T05:44:43;18.60;73.70
72814;DHT22;60945;48.516;-2.768;2022-07-29T05:47:09;18.70;73.50
72814;DHT22;60945;48.516;-2.768;2022-07-29T05:49:34;18.80;72.90
72814;DHT22;60945;48.516;-2.768;2022-07-29T05:52:00;18.80;73.10
72814;DHT22;60945;48.516;-2.768;2022-07-29T05:54:26;18.90;73.10
72814;DHT22;60945;48.516;-2.768;2022-07-29T05:56:51;18.90;73.10
72814;DHT22;60945;48.516;-2.768;2022-07-29T05:59:17;18.80;73.50
72814;DHT22;60945;48.516;-2.768;2022-07-29T06:01:43;18.90;73.50
72814;DHT22;60945;48.516;-2.768;2022-07-29T06:04:08;19.00;73.00
72814;DHT22;60945;48.516;-2.768;2022-07-29T06:06:34;19.00;72.90
72814;DHT22;60945;48.516;-2.768;2022-07-29T06:09:01;19.10;72.50
72814;DHT22;60945;48.516;-2.768;2022-07-29T06:11:27;19.30;71.90
72814;DHT22;60945;48.516;-2.768;2022-07-29T06:13:53;19.30;71.80
72814;DHT22;60945;48.516;-2.768;2022-07-29T06:16:19;19.30;71.70
72814;DHT22;60945;48.516;-2.768;2022-07-29T06:18:44;19.50;71.10
72814;DHT22;60945;48.516;-2.768;2022-07-29T06:21:10;19.60;71.00
72814;DHT22;60945;48.516;-2.768;2022-07-29T06:23:38;19.60;70.70
72814;DHT22;60945;48.516;-2.768;2022-07-29T06:26:04;19.60;71.00
72814;DHT22;60945;48.516;-2.768;2022-07-29T06:28:30;19.50;71.10
72814;DHT22;60945;48.516;-2.768;2022-07-29T06:30:56;19.60;70.70
72814;DHT22;60945;48.516;-2.768;2022-07-29T06:33:21;19.60;71.00
72814;DHT22;60945;48.516;-2.768;2022-07-29T06:35:47;19.70;70.60
72814;DHT22;60945;48.516;-2.768;2022-07-29T06:38:14;19.90;69.90
72814;DHT22;60945;48.516;-2.768;2022-07-29T06:40:44;19.80;70.20
72814;DHT22;60945;48.516;-2.768;2022-07-29T06:43:30;19.90;70.10
72814;DHT22;60945;48.516;-2.768;2022-07-29T06:46:16;19.90;70.10
72814;DHT22;60945;48.516;-2.768;2022-07-29T06:48:44;19.90;69.50
72814;DHT22;60945;48.516;-2.768;2022-07-29T06:51:11;19.90;70.40
72814;DHT22;60945;48.516;-2.768;2022-07-29T06:53:38;20.00;70.10
72814;DHT22;60945;48.516;-2.768;2022-07-29T06:56:05;20.00;70.00
72814;DHT22;60945;48.516;-2.768;2022-07-29T06:58:33;20.10;69.70
72814;DHT22;60945;48.516;-2.768;2022-07-29T07:01:02;20.20;69.40
72814;DHT22;60945;48.516;-2.768;2022-07-29T07:03:28;20.30;68.90
72814;DHT22;60945;48.516;-2.768;2022-07-29T07:05:54;20.30;69.00
72814;DHT22;60945;48.516;-2.768;2022-07-29T07:08:21;20.20;68.90
72814;DHT22;60945;48.516;-2.768;2022-07-29T07:10:47;20.40;68.10
72814;DHT22;60945;48.516;-2.768;2022-07-29T07:13:13;20.50;68.00
72814;DHT22;60945;48.516;-2.768;2022-07-29T07:15:40;20.50;67.40
72814;DHT22;60945;48.516;-2.768;2022-07-29T07:18:06;20.40;68.10
72814;DHT22;60945;48.516;-2.768;2022-07-29T07:20:33;20.60;67.60
72814;DHT22;60945;48.516;-2.768;2022-07-29T07:22:59;20.60;67.80
72814;DHT22;60945;48.516;-2.768;2022-07-29T07:25:25;20.60;67.50
72814;DHT22;60945;48.516;-2.768;2022-07-29T07:27:50;20.70;67.30
72814;DHT22;60945;48.516;-2.768;2022-07-29T07:30:16;20.70;67.20
72814;DHT22;60945;48.516;-2.768;2022-07-29T07:32:42;20.90;66.60
72814;DHT22;60945;48.516;-2.768;2022-07-29T07:35:09;20.70;66.70
72814;DHT22;60945;48.516;-2.768;2022-07-29T07:37:36;20.80;66.10
72814;DHT22;60945;48.516;-2.768;2022-07-29T07:40:02;20.70;66.00
72814;DHT22;60945;48.516;-2.768;2022-07-29T07:42:28;20.80;65.70
72814;DHT22;60945;48.516;-2.768;2022-07-29T07:44:54;20.80;65.50
72814;DHT22;60945;48.516;-2.768;2022-07-29T07:47:20;21.00;65.10
72814;DHT22;60945;48.516;-2.768;2022-07-29T07:49:46;21.20;64.30
72814;DHT22;60945;48.516;-2.768;2022-07-29T07:52:20;21.10;64.80
72814;DHT22;60945;48.516;-2.768;2022-07-29T07:54:46;21.30;64.20
72814;DHT22;60945;48.516;-2.768;2022-07-29T07:57:12;21.40;63.70
72814;DHT22;60945;48.516;-2.768;2022-07-29T07:59:39;21.40;63.50
72814;DHT22;60945;48.516;-2.768;2022-07-29T08:02:05;21.40;63.30
72814;DHT22;60945;48.516;-2.768;2022-07-29T08:04:31;21.40;63.30
72814;DHT22;60945;48.516;-2.768;2022-07-29T08:06:57;21.60;62.80
72814;DHT22;60945;48.516;-2.768;2022-07-29T08:09:25;21.80;62.40
72814;DHT22;60945;48.516;-2.768;2022-07-29T08:11:51;21.80;62.20
72814;DHT22;60945;48.516;-2.768;2022-07-29T08:14:17;21.70;62.60
72814;DHT22;60945;48.516;-2.768;2022-07-29T08:16:43;21.90;62.30
72814;DHT22;60945;48.516;-2.768;2022-07-29T08:19:09;22.10;61.60
72814;DHT22;60945;48.516;-2.768;2022-07-29T08:21:35;22.20;60.90
72814;DHT22;60945;48.516;-2.768;2022-07-29T08:24:00;22.20;60.70
72814;DHT22;60945;48.516;-2.768;2022-07-29T08:26:44;22.20;60.80
72814;DHT22;60945;48.516;-2.768;2022-07-29T08:29:11;22.30;60.00
72814;DHT22;60945;48.516;-2.768;2022-07-29T08:31:37;22.30;59.10
72814;DHT22;60945;48.516;-2.768;2022-07-29T08:34:04;22.10;58.40
72814;DHT22;60945;48.516;-2.768;2022-07-29T08:36:30;22.00;58.50
72814;DHT22;60945;48.516;-2.768;2022-07-29T08:38:56;22.10;57.70
72814;DHT22;60945;48.516;-2.768;2022-07-29T08:41:22;22.10;57.40
72814;DHT22;60945;48.516;-2.768;2022-07-29T08:43:51;22.30;56.90
72814;DHT22;60945;48.516;-2.768;2022-07-29T08:46:18;22.60;56.00
72814;DHT22;60945;48.516;-2.768;2022-07-29T08:48:44;22.60;55.50
72814;DHT22;60945;48.516;-2.768;2022-07-29T08:51:14;22.50;55.90
72814;DHT22;60945;48.516;-2.768;2022-07-29T08:53:42;22.50;55.60
72814;DHT22;60945;48.516;-2.768;2022-07-29T08:56:12;22.50;55.00
72814;DHT22;60945;48.516;-2.768;2022-07-29T08:58:39;22.40;55.40
72814;DHT22;60945;48.516;-2.768;2022-07-29T09:01:06;22.40;55.30
72814;DHT22;60945;48.516;-2.768;2022-07-29T09:03:34;22.60;54.20
72814;DHT22;60945;48.516;-2.768;2022-07-29T09:06:01;22.60;53.50
72814;DHT22;60945;48.516;-2.768;2022-07-29T09:08:27;22.70;53.20
72814;DHT22;60945;48.516;-2.768;2022-07-29T09:10:55;22.80;52.90
72814;DHT22;60945;48.516;-2.768;2022-07-29T09:13:22;22.80;52.90
72814;DHT22;60945;48.516;-2.768;2022-07-29T09:15:48;23.00;52.80
72814;DHT22;60945;48.516;-2.768;2022-07-29T09:18:37;23.30;52.70
72814;DHT22;60945;48.516;-2.768;2022-07-29T09:21:03;23.30;53.10
72814;DHT22;60945;48.516;-2.768;2022-07-29T09:24:06;23.40;53.20
72814;DHT22;60945;48.516;-2.768;2022-07-29T09:26:37;23.50;52.80
72814;DHT22;60945;48.516;-2.768;2022-07-29T09:29:24;23.60;53.10
72814;DHT22;60945;48.516;-2.768;2022-07-29T09:31:52;23.70;51.10
72814;DHT22;60945;48.516;-2.768;2022-07-29T09:34:27;23.90;51.70
72814;DHT22;60945;48.516;-2.768;2022-07-29T09:36:57;23.80;51.30
72814;DHT22;60945;48.516;-2.768;2022-07-29T09:39:34;24.00;50.90
72814;DHT22;60945;48.516;-2.768;2022-07-29T09:42:03;24.10;49.20
72814;DHT22;60945;48.516;-2.768;2022-07-29T09:44:50;23.80;47.60
72814;DHT22;60945;48.516;-2.768;2022-07-29T09:47:17;23.80;46.20
72814;DHT22;60945;48.516;-2.768;2022-07-29T09:49:57;23.90;47.00
72814;DHT22;60945;48.516;-2.768;2022-07-29T09:52:27;24.10;45.70
72814;DHT22;60945;48.516;-2.768;2022-07-29T09:54:53;24.20;45.60
72814;DHT22;60945;48.516;-2.768;2022-07-29T09:57:29;24.40;45.80
72814;DHT22;60945;48.516;-2.768;2022-07-29T09:59:58;24.70;45.50
72814;DHT22;60945;48.516;-2.768;2022-07-29T10:02:28;24.90;45.40
72814;DHT22;60945;48.516;-2.768;2022-07-29T10:04:55;24.90;43.40
72814;DHT22;60945;48.516;-2.768;2022-07-29T10:07:21;24.80;42.90
72814;DHT22;60945;48.516;-2.768;2022-07-29T10:09:53;24.80;43.40
72814;DHT22;60945;48.516;-2.768;2022-07-29T10:12:20;25.00;42.40
72814;DHT22;60945;48.516;-2.768;2022-07-29T10:14:46;25.20;42.90
72814;DHT22;60945;48.516;-2.768;2022-07-29T10:17:12;25.30;43.00
72814;DHT22;60945;48.516;-2.768;2022-07-29T10:19:38;25.50;42.70
72814;DHT22;60945;48.516;-2.768;2022-07-29T10:22:08;25.90;42.00
72814;DHT22;60945;48.516;-2.768;2022-07-29T10:24:36;26.30;40.60
72814;DHT22;60945;48.516;-2.768;2022-07-29T10:27:07;26.50;40.10
72814;DHT22;60945;48.516;-2.768;2022-07-29T10:29:33;26.80;39.30
72814;DHT22;60945;48.516;-2.768;2022-07-29T10:32:36;27.40;38.40
72814;DHT22;60945;48.516;-2.768;2022-07-29T10:40:54;26.80;37.80
72814;DHT22;60945;48.516;-2.768;2022-07-29T10:43:44;27.00;37.30
72814;DHT22;60945;48.516;-2.768;2022-07-29T10:46:11;28.10;36.50
72814;DHT22;60945;48.516;-2.768;2022-07-29T10:51:51;28.90;34.00
72814;DHT22;60945;48.516;-2.768;2022-07-29T10:54:17;28.80;34.00
72814;DHT22;60945;48.516;-2.768;2022-07-29T10:56:43;29.20;34.40
72814;DHT22;60945;48.516;-2.768;2022-07-29T11:01:47;29.70;31.70
72814;DHT22;60945;48.516;-2.768;2022-07-29T11:04:14;30.10;31.80
72814;DHT22;60945;48.516;-2.768;2022-07-29T11:07:06;30.20;31.70
72814;DHT22;60945;48.516;-2.768;2022-07-29T11:09:33;30.20;29.30
72814;DHT22;60945;48.516;-2.768;2022-07-29T11:11:59;30.60;30.70
72814;DHT22;60945;48.516;-2.768;2022-07-29T11:17:19;31.70;28.30
72814;DHT22;60945;48.516;-2.768;2022-07-29T11:19:44;32.10;28.80
72814;DHT22;60945;48.516;-2.768;2022-07-29T11:22:11;32.70;27.90
72814;DHT22;60945;48.516;-2.768;2022-07-29T11:24:37;33.50;27.00
72814;DHT22;60945;48.516;-2.768;2022-07-29T11:27:16;33.50;26.90
72814;DHT22;60945;48.516;-2.768;2022-07-29T11:29:50;34.60;25.40
72814;DHT22;60945;48.516;-2.768;2022-07-29T11:32:17;34.10;26.40
72814;DHT22;60945;48.516;-2.768;2022-07-29T11:34:47;35.30;25.70
72814;DHT22;60945;48.516;-2.768;2022-07-29T11:37:17;36.40;24.90
72814;DHT22;60945;48.516;-2.768;2022-07-29T11:45:05;37.30;22.50
72814;DHT22;60945;48.516;-2.768;2022-07-29T11:47:36;38.30;21.70
72814;DHT22;60945;48.516;-2.768;2022-07-29T11:50:04;39.40;21.00
72814;DHT22;60945;48.516;-2.768;2022-07-29T11:52:34;39.50;20.30
72814;DHT22;60945;48.516;-2.768;2022-07-29T11:55:04;38.50;21.00
72814;DHT22;60945;48.516;-2.768;2022-07-29T11:57:30;38.40;21.40
72814;DHT22;60945;48.516;-2.768;2022-07-29T11:59:57;39.00;20.90
72814;DHT22;60945;48.516;-2.768;2022-07-29T12:02:23;39.30;20.50
72814;DHT22;60945;48.516;-2.768;2022-07-29T12:04:55;40.30;20.40
72814;DHT22;60945;48.516;-2.768;2022-07-29T12:07:31;40.80;19.50
72814;DHT22;60945;48.516;-2.768;2022-07-29T12:09:57;41.90;19.10
72814;DHT22;60945;48.516;-2.768;2022-07-29T12:12:23;42.40;18.90
72814;DHT22;60945;48.516;-2.768;2022-07-29T12:14:52;42.60;19.10
72814;DHT22;60945;48.516;-2.768;2022-07-29T12:17:34;43.60;18.30
72814;DHT22;60945;48.516;-2.768;2022-07-29T12:20:02;45.00;17.60
72814;DHT22;60945;48.516;-2.768;2022-07-29T12:22:30;46.50;17.00
72814;DHT22;60945;48.516;-2.768;2022-07-29T12:25:07;46.90;16.30
72814;DHT22;60945;48.516;-2.768;2022-07-29T12:27:35;47.50;15.50
72814;DHT22;60945;48.516;-2.768;2022-07-29T12:30:12;48.40;15.00
72814;DHT22;60945;48.516;-2.768;2022-07-29T12:32:46;48.00;14.90
72814;DHT22;60945;48.516;-2.768;2022-07-29T12:35:14;48.50;15.30
72814;DHT22;60945;48.516;-2.768;2022-07-29T12:37:42;48.50;15.20
72814;DHT22;60945;48.516;-2.768;2022-07-29T12:40:09;49.10;14.60
72814;DHT22;60945;48.516;-2.768;2022-07-29T12:42:35;50.20;14.50
72814;DHT22;60945;48.516;-2.768;2022-07-29T12:45:05;50.80;14.20
72814;DHT22;60945;48.516;-2.768;2022-07-29T12:47:32;50.60;14.00
72814;DHT22;60945;48.516;-2.768;2022-07-29T12:50:12;50.50;14.40
72814;DHT22;60945;48.516;-2.768;2022-07-29T12:52:39;51.30;14.50
72814;DHT22;60945;48.516;-2.768;2022-07-29T12:55:05;51.80;14.20
72814;DHT22;60945;48.516;-2.768;2022-07-29T12:57:35;52.40;13.80
72814;DHT22;60945;48.516;-2.768;2022-07-29T13:00:11;51.90;13.70
72814;DHT22;60945;48.516;-2.768;2022-07-29T13:02:38;51.00;14.30
72814;DHT22;60945;48.516;-2.768;2022-07-29T13:05:05;51.40;13.90
72814;DHT22;60945;48.516;-2.768;2022-07-29T13:07:33;51.00;13.80
72814;DHT22;60945;48.516;-2.768;2022-07-29T13:10:16;51.10;13.40
72814;DHT22;60945;48.516;-2.768;2022-07-29T13:13:02;50.40;14.40
72814;DHT22;60945;48.516;-2.768;2022-07-29T13:15:28;50.90;13.30
72814;DHT22;60945;48.516;-2.768;2022-07-29T13:17:53;51.20;13.60
72814;DHT22;60945;48.516;-2.768;2022-07-29T13:20:24;51.30;13.40
72814;DHT22;60945;48.516;-2.768;2022-07-29T13:22:50;51.50;12.70
72814;DHT22;60945;48.516;-2.768;2022-07-29T13:25:27;52.20;13.10
72814;DHT22;60945;48.516;-2.768;2022-07-29T13:27:54;51.80;13.10
72814;DHT22;60945;48.516;-2.768;2022-07-29T13:30:21;51.60;13.70
72814;DHT22;60945;48.516;-2.768;2022-07-29T13:32:46;51.80;13.60
72814;DHT22;60945;48.516;-2.768;2022-07-29T13:35:13;52.10;13.70
72814;DHT22;60945;48.516;-2.768;2022-07-29T13:37:39;52.30;13.50
72814;DHT22;60945;48.516;-2.768;2022-07-29T13:40:09;52.90;13.50
72814;DHT22;60945;48.516;-2.768;2022-07-29T13:42:35;53.10;13.30
72814;DHT22;60945;48.516;-2.768;2022-07-29T13:45:01;53.40;13.50
72814;DHT22;60945;48.516;-2.768;2022-07-29T13:47:27;52.90;13.50
72814;DHT22;60945;48.516;-2.768;2022-07-29T13:49:54;53.90;13.10
72814;DHT22;60945;48.516;-2.768;2022-07-29T13:52:20;54.30;13.00
72814;DHT22;60945;48.516;-2.768;2022-07-29T13:54:46;54.20;12.90
72814;DHT22;60945;48.516;-2.768;2022-07-29T13:57:12;54.20;13.10
72814;DHT22;60945;48.516;-2.768;2022-07-29T13:59:39;52.30;13.40
72814;DHT22;60945;48.516;-2.768;2022-07-29T14:02:06;52.70;13.10
72814;DHT22;60945;48.516;-2.768;2022-07-29T14:04:32;52.80;12.90
72814;DHT22;60945;48.516;-2.768;2022-07-29T14:06:57;52.60;13.10
72814;DHT22;60945;48.516;-2.768;2022-07-29T14:09:23;52.10;13.10
72814;DHT22;60945;48.516;-2.768;2022-07-29T14:11:49;51.80;13.30
72814;DHT22;60945;48.516;-2.768;2022-07-29T14:14:17;52.00;13.10
72814;DHT22;60945;48.516;-2.768;2022-07-29T14:16:42;52.50;13.00
72814;DHT22;60945;48.516;-2.768;2022-07-29T14:19:08;53.00;12.80
72814;DHT22;60945;48.516;-2.768;2022-07-29T14:21:34;52.10;13.10
72814;DHT22;60945;48.516;-2.768;2022-07-29T14:24:00;52.00;13.00
72814;DHT22;60945;48.516;-2.768;2022-07-29T14:26:26;51.50;13.10
72814;DHT22;60945;48.516;-2.768;2022-07-29T14:28:52;51.20;13.50
72814;DHT22;60945;48.516;-2.768;2022-07-29T14:31:17;51.40;13.60
72814;DHT22;60945;48.516;-2.768;2022-07-29T14:33:43;52.00;13.60
72814;DHT22;60945;48.516;-2.768;2022-07-29T14:36:08;51.90;13.50
72814;DHT22;60945;48.516;-2.768;2022-07-29T14:38:35;51.80;13.80
72814;DHT22;60945;48.516;-2.768;2022-07-29T14:41:01;51.40;14.10
72814;DHT22;60945;48.516;-2.768;2022-07-29T14:43:27;52.10;14.00
72814;DHT22;60945;48.516;-2.768;2022-07-29T14:45:52;51.50;13.70
72814;DHT22;60945;48.516;-2.768;2022-07-29T14:48:18;51.50;13.50
72814;DHT22;60945;48.516;-2.768;2022-07-29T14:50:44;51.10;14.10
72814;DHT22;60945;48.516;-2.768;2022-07-29T14:53:09;51.20;14.40
72814;DHT22;60945;48.516;-2.768;2022-07-29T14:55:37;50.80;14.70
72814;DHT22;60945;48.516;-2.768;2022-07-29T14:58:03;50.20;15.00
72814;DHT22;60945;48.516;-2.768;2022-07-29T15:00:28;50.00;14.70
72814;DHT22;60945;48.516;-2.768;2022-07-29T15:03:00;50.10;14.40
72814;DHT22;60945;48.516;-2.768;2022-07-29T15:05:27;50.20;14.00
72814;DHT22;60945;48.516;-2.768;2022-07-29T15:07:52;49.50;14.40
72814;DHT22;60945;48.516;-2.768;2022-07-29T15:10:18;49.30;14.50
72814;DHT22;60945;48.516;-2.768;2022-07-29T15:12:44;48.30;15.40
72814;DHT22;60945;48.516;-2.768;2022-07-29T15:15:09;48.40;15.40
72814;DHT22;60945;48.516;-2.768;2022-07-29T15:17:35;47.90;15.90
72814;DHT22;60945;48.516;-2.768;2022-07-29T15:20:01;46.60;16.10
72814;DHT22;60945;48.516;-2.768;2022-07-29T15:22:27;44.90;17.70
72814;DHT22;60945;48.516;-2.768;2022-07-29T15:24:52;45.70;17.30
72814;DHT22;60945;48.516;-2.768;2022-07-29T15:27:18;45.50;17.60
72814;DHT22;60945;48.516;-2.768;2022-07-29T15:29:44;45.40;17.60
72814;DHT22;60945;48.516;-2.768;2022-07-29T15:32:10;44.80;17.80
72814;DHT22;60945;48.516;-2.768;2022-07-29T15:34:36;45.30;17.50
72814;DHT22;60945;48.516;-2.768;2022-07-29T15:37:02;45.10;17.60
72814;DHT22;60945;48.516;-2.768;2022-07-29T15:39:28;45.10;17.40
72814;DHT22;60945;48.516;-2.768;2022-07-29T15:41:54;44.20;17.70
72814;DHT22;60945;48.516;-2.768;2022-07-29T15:44:20;43.90;17.50
72814;DHT22;60945;48.516;-2.768;2022-07-29T15:46:46;43.80;17.20
72814;DHT22;60945;48.516;-2.768;2022-07-29T15:49:37;43.80;17.40
72814;DHT22;60945;48.516;-2.768;2022-07-29T15:52:06;43.70;17.50
72814;DHT22;60945;48.516;-2.768;2022-07-29T15:54:33;44.20;17.50
72814;DHT22;60945;48.516;-2.768;2022-07-29T15:56:59;42.40;18.10
72814;DHT22;60945;48.516;-2.768;2022-07-29T15:59:25;42.40;18.10
72814;DHT22;60945;48.516;-2.768;2022-07-29T16:01:51;41.90;17.90